sensor_id;sensor_type;location;lat;lon;timestamp;temperature;humidity
1011;DHT22;494;48.744;10.106;2023-07-13T00:01:45;19.70;39.30
1011;DHT22;494;48.744;10.106;2023-07-13T00:04:20;19.70;39.30
1011;DHT22;494;48.744;10.106;2023-07-13T00:06:54;19.60;39.40
1011;DHT22;494;48.744;10.106;2023-07-13T00:09:23;19.50;39.80
1011;DHT22;494;48.744;10.106;2023-07-13T00:11:55;19.60;40.30
1011;DHT22;494;48.744;10.106;2023-07-13T00:14:28;19.60;40.50
1011;DHT22;494;48.744;10.106;2023-07-13T00:16:59;19.50;40.80
1011;DHT22;494;48.744;10.106;2023-07-13T00:19:28;19.50;40.90
1011;DHT22;494;48.744;10.106;2023-07-13T00:22:00;19.50;41.30
1011;DHT22;494;48.744;10.106;2023-07-13T00:24:29;19.50;41.60
1011;DHT22;494;48.744;10.106;2023-07-13T00:26:59;19.60;41.60
1011;DHT22;494;48.744;10.106;2023-07-13T00:29:29;19.60;41.20
1011;DHT22;494;48.744;10.106;2023-07-13T00:32:02;19.60;41.10
1011;DHT22;494;48.744;10.106;2023-07-13T00:34:33;19.60;41.10
1011;DHT22;494;48.744;10.106;2023-07-13T00:37:04;19.70;41.10
1011;DHT22;494;48.744;10.106;2023-07-13T00:39:35;19.70;41.00
1011;DHT22;494;48.744;10.106;2023-07-13T00:42:05;19.70;40.70
1011;DHT22;494;48.744;10.106;2023-07-13T00:44:35;19.70;40.10
1011;DHT22;494;48.744;10.106;2023-07-13T00:47:07;19.70;39.70
1011;DHT22;494;48.744;10.106;2023-07-13T00:49:37;19.70;39.20
1011;DHT22;494;48.744;10.106;2023-07-13T00:52:09;19.70;39.20
1011;DHT22;494;48.744;10.106;2023-07-13T00:54:39;19.70;39.00
1011;DHT22;494;48.744;10.106;2023-07-13T00:57:16;19.60;38.80
1011;DHT22;494;48.744;10.106;2023-07-13T00:59:52;19.50;39.00
1011;DHT22;494;48.744;10.106;2023-07-13T01:02:28;19.50;39.10
1011;DHT22;494;48.744;10.106;2023-07-13T01:04:57;19.40;39.60
1011;DHT22;494;48.744;10.106;2023-07-13T01:07:31;19.40;39.50
1011;DHT22;494;48.744;10.106;2023-07-13T01:10:02;19.40;39.60
1011;DHT22;494;48.744;10.106;2023-07-13T01:12:31;19.30;39.60
1011;DHT22;494;48.744;10.106;2023-07-13T01:15:01;19.20;38.50
1011;DHT22;494;48.744;10.106;2023-07-13T01:17:34;19.10;38.60
1011;DHT22;494;48.744;10.106;2023-07-13T01:20:04;18.90;38.70
1011;DHT22;494;48.744;10.106;2023-07-13T01:22:37;18.70;39.60
1011;DHT22;494;48.744;10.106;2023-07-13T01:25:07;18.70;40.10
1011;DHT22;494;48.744;10.106;2023-07-13T01:27:36;18.60;40.10
1011;DHT22;494;48.744;10.106;2023-07-13T01:30:09;18.60;40.10
1011;DHT22;494;48.744;10.106;2023-07-13T01:32:39;18.50;39.20
1011;DHT22;494;48.744;10.106;2023-07-13T01:35:09;18.30;39.70
1011;DHT22;494;48.744;10.106;2023-07-13T01:37:41;18.20;40.50
1011;DHT22;494;48.744;10.106;2023-07-13T01:40:12;18.30;40.20
1011;DHT22;494;48.744;10.106;2023-07-13T01:42:41;18.30;39.80
1011;DHT22;494;48.744;10.106;2023-07-13T01:45:11;18.40;39.50
1011;DHT22;494;48.744;10.106;2023-07-13T01:47:40;18.40;39.10
1011;DHT22;494;48.744;10.106;2023-07-13T01:50:09;18.30;39.30
1011;DHT22;494;48.744;10.106;2023-07-13T01:52:38;18.20;39.40
1011;DHT22;494;48.744;10.106;2023-07-13T01:55:10;18.10;39.00
1011;DHT22;494;48.744;10.106;2023-07-13T01:57:39;18.10;39.50
1011;DHT22;494;48.744;10.106;2023-07-13T02:00:10;17.90;39.70
1011;DHT22;494;48.744;10.106;2023-07-13T02:02:41;17.70;38.10
1011;DHT22;494;48.744;10.106;2023-07-13T02:05:13;17.70;37.50
1011;DHT22;494;48.744;10.106;2023-07-13T02:07:43;17.70;37.10
1011;DHT22;494;48.744;10.106;2023-07-13T02:10:15;17.80;36.30
1011;DHT22;494;48.744;10.106;2023-07-13T02:12:44;17.70;37.30
1011;DHT22;494;48.744;10.106;2023-07-13T02:15:14;17.70;37.40
1011;DHT22;494;48.744;10.106;2023-07-13T02:17:43;17.80;38.20
1011;DHT22;494;48.744;10.106;2023-07-13T02:20:12;17.70;38.80
1011;DHT22;494;48.744;10.106;2023-07-13T02:22:41;17.60;39.50
1011;DHT22;494;48.744;10.106;2023-07-13T02:25:10;17.60;40.40
1011;DHT22;494;48.744;10.106;2023-07-13T02:27:41;17.50;41.20
1011;DHT22;494;48.744;10.106;2023-07-13T02:30:11;17.30;42.10
1011;DHT22;494;48.744;10.106;2023-07-13T02:32:40;17.20;42.80
1011;DHT22;494;48.744;10.106;2023-07-13T02:35:10;17.00;43.60
1011;DHT22;494;48.744;10.106;2023-07-13T02:37:53;16.90;44.30
1011;DHT22;494;48.744;10.106;2023-07-13T02:40:22;16.90;44.30
1011;DHT22;494;48.744;10.106;2023-07-13T02:42:53;16.70;45.30
1011;DHT22;494;48.744;10.106;2023-07-13T02:45:25;16.50;45.90
1011;DHT22;494;48.744;10.106;2023-07-13T02:47:53;16.60;45.90
1011;DHT22;494;48.744;10.106;2023-07-13T02:50:22;16.40;46.40
1011;DHT22;494;48.744;10.106;2023-07-13T02:52:52;16.50;46.30
1011;DHT22;494;48.744;10.106;2023-07-13T02:55:21;16.50;46.30
1011;DHT22;494;48.744;10.106;2023-07-13T02:57:50;16.50;45.40
1011;DHT22;494;48.744;10.106;2023-07-13T03:00:22;16.30;45.90
1011;DHT22;494;48.744;10.106;2023-07-13T03:02:51;16.20;46.60
1011;DHT22;494;48.744;10.106;2023-07-13T03:05:21;16.20;46.30
1011;DHT22;494;48.744;10.106;2023-07-13T03:07:49;16.30;45.70
1011;DHT22;494;48.744;10.106;2023-07-13T03:10:19;16.30;45.40
1011;DHT22;494;48.744;10.106;2023-07-13T03:12:49;16.30;45.50
1011;DHT22;494;48.744;10.106;2023-07-13T03:16:07;16.20;45.70
1011;DHT22;494;48.744;10.106;2023-07-13T03:18:38;16.30;45.80
1011;DHT22;494;48.744;10.106;2023-07-13T03:21:08;16.40;45.20
1011;DHT22;494;48.744;10.106;2023-07-13T03:23:37;16.40;44.50
1011;DHT22;494;48.744;10.106;2023-07-13T03:26:10;16.50;44.10
1011;DHT22;494;48.744;10.106;2023-07-13T03:28:41;16.50;43.50
1011;DHT22;494;48.744;10.106;2023-07-13T03:31:14;16.60;43.30
1011;DHT22;494;48.744;10.106;2023-07-13T03:33:45;16.70;42.10
1011;DHT22;494;48.744;10.106;2023-07-13T03:36:17;16.60;41.70
1011;DHT22;494;48.744;10.106;2023-07-13T03:38:51;16.60;41.50
1011;DHT22;494;48.744;10.106;2023-07-13T03:41:23;16.60;41.50
1011;DHT22;494;48.744;10.106;2023-07-13T03:43:54;16.70;40.90
1011;DHT22;494;48.744;10.106;2023-07-13T03:46:25;16.70;40.90
1011;DHT22;494;48.744;10.106;2023-07-13T03:48:55;16.80;40.90
1011;DHT22;494;48.744;10.106;2023-07-13T03:51:24;16.80;40.50
1011;DHT22;494;48.744;10.106;2023-07-13T03:53:54;16.90;40.40
1011;DHT22;494;48.744;10.106;2023-07-13T03:56:24;17.00;39.90
1011;DHT22;494;48.744;10.106;2023-07-13T03:58:54;17.00;39.20
1011;DHT22;494;48.744;10.106;2023-07-13T04:01:25;17.00;39.30
1011;DHT22;494;48.744;10.106;2023-07-13T04:03:56;17.00;39.20
1011;DHT22;494;48.744;10.106;2023-07-13T04:06:31;17.10;38.70
1011;DHT22;494;48.744;10.106;2023-07-13T04:09:02;17.10;38.70
1011;DHT22;494;48.744;10.106;2023-07-13T04:11:36;17.20;38.60
1011;DHT22;494;48.744;10.106;2023-07-13T04:14:05;17.20;38.50
1011;DHT22;494;48.744;10.106;2023-07-13T04:16:37;17.20;38.30
1011;DHT22;494;48.744;10.106;2023-07-13T04:19:09;17.20;37.80
1011;DHT22;494;48.744;10.106;2023-07-13T04:21:39;17.30;37.30
1011;DHT22;494;48.744;10.106;2023-07-13T04:24:12;17.30;37.10
1011;DHT22;494;48.744;10.106;2023-07-13T04:27:00;17.30;36.80
1011;DHT22;494;48.744;10.106;2023-07-13T04:29:32;17.40;36.20
1011;DHT22;494;48.744;10.106;2023-07-13T04:32:03;17.30;35.50
1011;DHT22;494;48.744;10.106;2023-07-13T04:34:36;17.20;36.40
1011;DHT22;494;48.744;10.106;2023-07-13T04:37:07;17.40;36.50
1011;DHT22;494;48.744;10.106;2023-07-13T04:39:37;17.40;36.40
1011;DHT22;494;48.744;10.106;2023-07-13T04:42:06;17.60;36.60
1011;DHT22;494;48.744;10.106;2023-07-13T04:44:36;17.60;37.00
1011;DHT22;494;48.744;10.106;2023-07-13T04:47:07;17.70;36.80
1011;DHT22;494;48.744;10.106;2023-07-13T04:49:36;17.80;36.60
1011;DHT22;494;48.744;10.106;2023-07-13T04:52:06;17.80;36.40
1011;DHT22;494;48.744;10.106;2023-07-13T04:54:40;17.90;36.20
1011;DHT22;494;48.744;10.106;2023-07-13T04:57:09;17.90;35.50
1011;DHT22;494;48.744;10.106;2023-07-13T04:59:38;17.90;36.10
1011;DHT22;494;48.744;10.106;2023-07-13T05:02:10;17.90;35.70
1011;DHT22;494;48.744;10.106;2023-07-13T05:04:40;17.90;35.70
1011;DHT22;494;48.744;10.106;2023-07-13T05:07:10;18.00;34.50
1011;DHT22;494;48.744;10.106;2023-07-13T05:09:39;18.10;33.50
1011;DHT22;494;48.744;10.106;2023-07-13T05:12:09;18.20;32.30
1011;DHT22;494;48.744;10.106;2023-07-13T05:14:39;18.40;31.80
1011;DHT22;494;48.744;10.106;2023-07-13T05:17:13;18.50;33.00
1011;DHT22;494;48.744;10.106;2023-07-13T05:19:43;18.60;32.90
1011;DHT22;494;48.744;10.106;2023-07-13T05:22:13;18.60;33.10
1011;DHT22;494;48.744;10.106;2023-07-13T05:24:42;18.70;33.50
1011;DHT22;494;48.744;10.106;2023-07-13T05:27:11;18.80;32.10
1011;DHT22;494;48.744;10.106;2023-07-13T05:29:41;18.90;31.10
1011;DHT22;494;48.744;10.106;2023-07-13T05:32:14;19.00;30.80
1011;DHT22;494;48.744;10.106;2023-07-13T05:34:44;19.10;29.90
1011;DHT22;494;48.744;10.106;2023-07-13T05:37:15;19.10;28.60
1011;DHT22;494;48.744;10.106;2023-07-13T05:39:44;19.30;28.00
1011;DHT22;494;48.744;10.106;2023-07-13T05:42:14;19.40;27.40
1011;DHT22;494;48.744;10.106;2023-07-13T05:44:44;19.50;25.30
1011;DHT22;494;48.744;10.106;2023-07-13T05:47:16;19.60;24.00
1011;DHT22;494;48.744;10.106;2023-07-13T05:49:45;19.70;22.60
1011;DHT22;494;48.744;10.106;2023-07-13T05:52:16;19.80;23.60
1011;DHT22;494;48.744;10.106;2023-07-13T05:54:45;19.90;23.80
1011;DHT22;494;48.744;10.106;2023-07-13T05:57:14;20.10;24.70
1011;DHT22;494;48.744;10.106;2023-07-13T05:59:44;20.10;23.10
1011;DHT22;494;48.744;10.106;2023-07-13T06:02:17;20.20;22.40
1011;DHT22;494;48.744;10.106;2023-07-13T06:04:53;20.30;24.20
1011;DHT22;494;48.744;10.106;2023-07-13T06:07:23;20.40;22.60
1011;DHT22;494;48.744;10.106;2023-07-13T06:09:52;20.60;22.60
1011;DHT22;494;48.744;10.106;2023-07-13T06:12:23;20.60;19.70
1011;DHT22;494;48.744;10.106;2023-07-13T06:14:53;20.80;19.00
1011;DHT22;494;48.744;10.106;2023-07-13T06:17:30;21.00;18.80
1011;DHT22;494;48.744;10.106;2023-07-13T06:20:00;21.30;16.70
1011;DHT22;494;48.744;10.106;2023-07-13T06:22:30;21.40;15.40
1011;DHT22;494;48.744;10.106;2023-07-13T06:24:59;21.50;13.90
1011;DHT22;494;48.744;10.106;2023-07-13T06:27:30;21.50;19.40
1011;DHT22;494;48.744;10.106;2023-07-13T06:30:01;21.50;19.40
1011;DHT22;494;48.744;10.106;2023-07-13T06:32:35;21.60;20.80
1011;DHT22;494;48.744;10.106;2023-07-13T06:35:08;21.60;20.40
1011;DHT22;494;48.744;10.106;2023-07-13T06:37:40;21.70;20.00
1011;DHT22;494;48.744;10.106;2023-07-13T06:40:12;21.80;19.60
1011;DHT22;494;48.744;10.106;2023-07-13T06:42:41;21.80;18.00
1011;DHT22;494;48.744;10.106;2023-07-13T06:45:13;21.90;17.50
1011;DHT22;494;48.744;10.106;2023-07-13T06:47:45;22.10;14.20
1011;DHT22;494;48.744;10.106;2023-07-13T06:50:16;22.20;11.30
1011;DHT22;494;48.744;10.106;2023-07-13T06:52:46;22.50;11.60
1011;DHT22;494;48.744;10.106;2023-07-13T06:55:18;22.80;9.40
1011;DHT22;494;48.744;10.106;2023-07-13T06:57:47;22.90;9.60
1011;DHT22;494;48.744;10.106;2023-07-13T07:00:17;23.20;8.60
1011;DHT22;494;48.744;10.106;2023-07-13T07:02:48;23.40;7.40
1011;DHT22;494;48.744;10.106;2023-07-13T07:05:18;23.60;7.40
1011;DHT22;494;48.744;10.106;2023-07-13T07:07:49;23.80;7.90
1011;DHT22;494;48.744;10.106;2023-07-13T07:10:20;24.00;5.50
1011;DHT22;494;48.744;10.106;2023-07-13T07:12:51;24.00;6.80
1011;DHT22;494;48.744;10.106;2023-07-13T07:15:21;24.20;4.80
1011;DHT22;494;48.744;10.106;2023-07-13T07:17:55;24.40;3.70
1011;DHT22;494;48.744;10.106;2023-07-13T07:20:25;24.60;4.30
1011;DHT22;494;48.744;10.106;2023-07-13T07:22:55;24.80;5.50
1011;DHT22;494;48.744;10.106;2023-07-13T07:25:25;24.80;2.90
1011;DHT22;494;48.744;10.106;2023-07-13T07:27:55;24.80;3.20
1011;DHT22;494;48.744;10.106;2023-07-13T07:30:27;24.80;2.60
1011;DHT22;494;48.744;10.106;2023-07-13T07:33:00;24.60;2.90
1011;DHT22;494;48.744;10.106;2023-07-13T07:35:31;24.50;3.30
1011;DHT22;494;48.744;10.106;2023-07-13T07:38:21;24.50;3.60
1011;DHT22;494;48.744;10.106;2023-07-13T07:40:53;24.60;4.00
1011;DHT22;494;48.744;10.106;2023-07-13T07:43:27;24.80;3.60
1011;DHT22;494;48.744;10.106;2023-07-13T07:46:00;24.90;3.80
1011;DHT22;494;48.744;10.106;2023-07-13T07:48:33;25.00;3.00
1011;DHT22;494;48.744;10.106;2023-07-13T07:51:02;25.00;2.40
1011;DHT22;494;48.744;10.106;2023-07-13T07:53:34;25.00;1.80
1011;DHT22;494;48.744;10.106;2023-07-13T07:56:04;25.00;2.60
1011;DHT22;494;48.744;10.106;2023-07-13T07:58:39;25.10;2.50
1011;DHT22;494;48.744;10.106;2023-07-13T08:01:13;25.10;3.00
1011;DHT22;494;48.744;10.106;2023-07-13T08:03:48;25.10;3.10
1011;DHT22;494;48.744;10.106;2023-07-13T08:06:22;25.00;1.90
1011;DHT22;494;48.744;10.106;2023-07-13T08:09:11;25.00;1.60
1011;DHT22;494;48.744;10.106;2023-07-13T08:11:41;24.90;1.90
1011;DHT22;494;48.744;10.106;2023-07-13T08:14:14;24.80;1.80
1011;DHT22;494;48.744;10.106;2023-07-13T08:16:46;24.80;3.30
1011;DHT22;494;48.744;10.106;2023-07-13T08:19:17;24.80;1.00
1011;DHT22;494;48.744;10.106;2023-07-13T08:21:47;24.90;1.00
1011;DHT22;494;48.744;10.106;2023-07-13T08:24:17;24.90;2.50
1011;DHT22;494;48.744;10.106;2023-07-13T08:26:47;25.00;2.20
1011;DHT22;494;48.744;10.106;2023-07-13T08:29:17;25.30;1.50
1011;DHT22;494;48.744;10.106;2023-07-13T08:31:48;25.50;1.20
1011;DHT22;494;48.744;10.106;2023-07-13T08:34:20;25.80;1.00
1011;DHT22;494;48.744;10.106;2023-07-13T08:36:51;26.00;1.00
1011;DHT22;494;48.744;10.106;2023-07-13T08:39:22;25.90;1.00
1011;DHT22;494;48.744;10.106;2023-07-13T08:41:56;26.00;1.00
1011;DHT22;494;48.744;10.106;2023-07-13T08:44:38;26.20;1.00
1011;DHT22;494;48.744;10.106;2023-07-13T08:47:17;26.20;1.00
1011;DHT22;494;48.744;10.106;2023-07-13T08:49:53;26.40;1.00
1011;DHT22;494;48.744;10.106;2023-07-13T08:52:29;26.30;1.00
1011;DHT22;494;48.744;10.106;2023-07-13T08:55:13;26.20;1.00
1011;DHT22;494;48.744;10.106;2023-07-13T08:57:48;26.30;1.30
1011;DHT22;494;48.744;10.106;2023-07-13T09:00:21;26.40;1.00
1011;DHT22;494;48.744;10.106;2023-07-13T09:02:57;26.50;1.00
1011;DHT22;494;48.744;10.106;2023-07-13T09:05:33;26.70;1.00
1011;DHT22;494;48.744;10.106;2023-07-13T09:08:28;26.80;1.00
1011;DHT22;494;48.744;10.106;2023-07-13T09:11:14;27.00;1.00
1011;DHT22;494;48.744;10.106;2023-07-13T09:14:02;27.00;1.00
1011;DHT22;494;48.744;10.106;2023-07-13T09:16:44;27.00;1.00
1011;DHT22;494;48.744;10.106;2023-07-13T09:19:23;27.00;1.00
1011;DHT22;494;48.744;10.106;2023-07-13T09:22:00;27.10;1.00
1011;DHT22;494;48.744;10.106;2023-07-13T09:24:38;27.30;1.00
1011;DHT22;494;48.744;10.106;2023-07-13T09:27:17;27.40;1.00
1011;DHT22;494;48.744;10.106;2023-07-13T09:29:57;27.60;1.00
1011;DHT22;494;48.744;10.106;2023-07-13T09:32:33;27.80;1.00
1011;DHT22;494;48.744;10.106;2023-07-13T09:35:16;27.90;1.00
1011;DHT22;494;48.744;10.106;2023-07-13T09:37:51;27.90;1.00
1011;DHT22;494;48.744;10.106;2023-07-13T09:40:40;28.00;1.00
1011;DHT22;494;48.744;10.106;2023-07-13T09:43:17;28.20;1.00
1011;DHT22;494;48.744;10.106;2023-07-13T09:45:47;28.40;1.00
1011;DHT22;494;48.744;10.106;2023-07-13T09:48:18;28.40;1.00
1011;DHT22;494;48.744;10.106;2023-07-13T09:50:48;28.20;1.00
1011;DHT22;494;48.744;10.106;2023-07-13T09:53:20;28.00;1.00
1011;DHT22;494;48.744;10.106;2023-07-13T09:55:52;28.10;1.00
1011;DHT22;494;48.744;10.106;2023-07-13T09:58:26;28.20;1.00
1011;DHT22;494;48.744;10.106;2023-07-13T10:01:03;28.40;1.00
1011;DHT22;494;48.744;10.106;2023-07-13T10:03:37;28.50;1.00
1011;DHT22;494;48.744;10.106;2023-07-13T10:06:13;28.30;1.00
1011;DHT22;494;48.744;10.106;2023-07-13T10:08:47;28.10;1.00
1011;DHT22;494;48.744;10.106;2023-07-13T10:11:19;28.30;1.00
1011;DHT22;494;48.744;10.106;2023-07-13T10:13:52;28.50;1.00
1011;DHT22;494;48.744;10.106;2023-07-13T10:16:26;28.40;1.00
1011;DHT22;494;48.744;10.106;2023-07-13T10:19:03;28.60;1.00
1011;DHT22;494;48.744;10.106;2023-07-13T10:21:47;28.70;1.00
1011;DHT22;494;48.744;10.106;2023-07-13T10:24:27;28.50;1.00
1011;DHT22;494;48.744;10.106;2023-07-13T10:27:15;28.40;1.00
1011;DHT22;494;48.744;10.106;2023-07-13T10:29:49;28.20;1.00
1011;DHT22;494;48.744;10.106;2023-07-13T10:32:25;28.20;1.00
1011;DHT22;494;48.744;10.106;2023-07-13T10:34:55;28.50;1.00
1011;DHT22;494;48.744;10.106;2023-07-13T10:37:35;28.80;1.00
1011;DHT22;494;48.744;10.106;2023-07-13T10:40:18;29.10;1.00
1011;DHT22;494;48.744;10.106;2023-07-13T10:42:58;29.20;1.00
1011;DHT22;494;48.744;10.106;2023-07-13T10:45:34;29.30;1.00
1011;DHT22;494;48.744;10.106;2023-07-13T10:48:09;29.40;1.00
1011;DHT22;494;48.744;10.106;2023-07-13T10:50:45;29.30;1.00
1011;DHT22;494;48.744;10.106;2023-07-13T10:53:19;29.30;1.00
1011;DHT22;494;48.744;10.106;2023-07-13T10:56:01;28.90;1.00
1011;DHT22;494;48.744;10.106;2023-07-13T10:58:34;28.90;1.00
1011;DHT22;494;48.744;10.106;2023-07-13T11:01:09;29.20;1.00
1011;DHT22;494;48.744;10.106;2023-07-13T11:03:50;29.50;1.00
1011;DHT22;494;48.744;10.106;2023-07-13T11:06:34;29.70;1.00
1011;DHT22;494;48.744;10.106;2023-07-13T11:09:32;29.70;1.00
1011;DHT22;494;48.744;10.106;2023-07-13T11:12:48;29.70;1.00
1011;DHT22;494;48.744;10.106;2023-07-13T11:15:44;30.10;1.00
1011;DHT22;494;48.744;10.106;2023-07-13T11:18:23;30.10;1.00
1011;DHT22;494;48.744;10.106;2023-07-13T11:21:12;30.20;1.00
1011;DHT22;494;48.744;10.106;2023-07-13T11:24:03;30.10;1.00
1011;DHT22;494;48.744;10.106;2023-07-13T11:26:41;30.40;1.00
1011;DHT22;494;48.744;10.106;2023-07-13T11:29:27;30.30;1.00
1011;DHT22;494;48.744;10.106;2023-07-13T11:32:21;30.30;1.00
1011;DHT22;494;48.744;10.106;2023-07-13T11:34:55;30.10;1.00
1011;DHT22;494;48.744;10.106;2023-07-13T11:37:24;30.00;1.00
1011;DHT22;494;48.744;10.106;2023-07-13T11:39:58;30.20;1.00
1011;DHT22;494;48.744;10.106;2023-07-13T11:42:28;30.40;1.00
1011;DHT22;494;48.744;10.106;2023-07-13T11:45:14;30.50;1.00
1011;DHT22;494;48.744;10.106;2023-07-13T11:48:04;30.40;1.00
1011;DHT22;494;48.744;10.106;2023-07-13T11:50:37;30.70;1.00
1011;DHT22;494;48.744;10.106;2023-07-13T11:53:11;30.60;1.00
1011;DHT22;494;48.744;10.106;2023-07-13T11:55:42;30.50;1.00
1011;DHT22;494;48.744;10.106;2023-07-13T11:58:17;30.60;1.00
1011;DHT22;494;48.744;10.106;2023-07-13T12:01:01;30.70;1.00
1011;DHT22;494;48.744;10.106;2023-07-13T12:03:35;31.00;1.00
1011;DHT22;494;48.744;10.106;2023-07-13T12:06:06;31.10;1.00
1011;DHT22;494;48.744;10.106;2023-07-13T12:08:58;31.40;1.00
1011;DHT22;494;48.744;10.106;2023-07-13T12:11:28;31.60;1.00
1011;DHT22;494;48.744;10.106;2023-07-13T12:13:58;31.90;1.00
1011;DHT22;494;48.744;10.106;2023-07-13T12:16:32;32.00;1.00
1011;DHT22;494;48.744;10.106;2023-07-13T12:19:16;31.90;1.00
1011;DHT22;494;48.744;10.106;2023-07-13T12:21:52;31.80;1.00
1011;DHT22;494;48.744;10.106;2023-07-13T12:24:25;31.70;1.00
1011;DHT22;494;48.744;10.106;2023-07-13T12:26:59;31.80;1.00
1011;DHT22;494;48.744;10.106;2023-07-13T12:29:33;31.80;1.00
1011;DHT22;494;48.744;10.106;2023-07-13T12:32:08;32.00;1.00
1011;DHT22;494;48.744;10.106;2023-07-13T12:34:53;32.10;1.00
1011;DHT22;494;48.744;10.106;2023-07-13T12:37:27;32.40;1.00
1011;DHT22;494;48.744;10.106;2023-07-13T12:40:14;32.60;1.00
1011;DHT22;494;48.744;10.106;2023-07-13T12:42:49;32.50;1.00
1011;DHT22;494;48.744;10.106;2023-07-13T12:45:31;32.60;1.00
1011;DHT22;494;48.744;10.106;2023-07-13T12:48:13;32.50;1.00
1011;DHT22;494;48.744;10.106;2023-07-13T12:50:55;32.30;1.00
1011;DHT22;494;48.744;10.106;2023-07-13T12:53:40;32.00;1.00
1011;DHT22;494;48.744;10.106;2023-07-13T12:56:21;31.90;1.00
1011;DHT22;494;48.744;10.106;2023-07-13T12:58:58;32.00;1.00
1011;DHT22;494;48.744;10.106;2023-07-13T13:01:34;32.00;1.00
1011;DHT22;494;48.744;10.106;2023-07-13T13:04:11;32.00;1.00
1011;DHT22;494;48.744;10.106;2023-07-13T13:06:45;31.90;1.00
1011;DHT22;494;48.744;10.106;2023-07-13T13:09:16;31.90;1.00
1011;DHT22;494;48.744;10.106;2023-07-13T13:11:48;31.70;1.00
1011;DHT22;494;48.744;10.106;2023-07-13T13:14:20;31.30;1.00
1011;DHT22;494;48.744;10.106;2023-07-13T13:16:51;30.80;1.00
1011;DHT22;494;48.744;10.106;2023-07-13T13:19:27;31.00;1.00
1011;DHT22;494;48.744;10.106;2023-07-13T13:22:04;31.30;1.00
1011;DHT22;494;48.744;10.106;2023-07-13T13:24:37;31.80;1.00
1011;DHT22;494;48.744;10.106;2023-07-13T13:27:15;32.10;1.00
1011;DHT22;494;48.744;10.106;2023-07-13T13:29:49;32.60;1.00
1011;DHT22;494;48.744;10.106;2023-07-13T13:32:20;32.70;1.00
1011;DHT22;494;48.744;10.106;2023-07-13T13:34:53;33.10;1.00
1011;DHT22;494;48.744;10.106;2023-07-13T13:37:24;33.30;1.00
1011;DHT22;494;48.744;10.106;2023-07-13T13:39:58;33.50;1.00
1011;DHT22;494;48.744;10.106;2023-07-13T13:42:41;33.70;1.00
1011;DHT22;494;48.744;10.106;2023-07-13T13:45:14;33.80;1.00
1011;DHT22;494;48.744;10.106;2023-07-13T13:47:49;33.90;1.00
1011;DHT22;494;48.744;10.106;2023-07-13T13:50:25;33.90;1.00
1011;DHT22;494;48.744;10.106;2023-07-13T13:52:56;34.00;1.00
1011;DHT22;494;48.744;10.106;2023-07-13T13:55:29;34.10;1.00
1011;DHT22;494;48.744;10.106;2023-07-13T13:57:59;34.10;1.00
1011;DHT22;494;48.744;10.106;2023-07-13T14:00:30;34.00;1.00
1011;DHT22;494;48.744;10.106;2023-07-13T14:03:00;34.00;1.00
1011;DHT22;494;48.744;10.106;2023-07-13T14:05:33;34.20;1.00
1011;DHT22;494;48.744;10.106;2023-07-13T14:08:04;34.20;1.00
1011;DHT22;494;48.744;10.106;2023-07-13T14:10:37;33.80;1.00
1011;DHT22;494;48.744;10.106;2023-07-13T14:13:15;33.60;1.00
1011;DHT22;494;48.744;10.106;2023-07-13T14:15:47;33.00;1.00
1011;DHT22;494;48.744;10.106;2023-07-13T14:18:18;32.60;1.00
1011;DHT22;494;48.744;10.106;2023-07-13T14:20:50;32.20;1.00
1011;DHT22;494;48.744;10.106;2023-07-13T14:23:22;32.10;1.00
1011;DHT22;494;48.744;10.106;2023-07-13T14:25:52;32.00;1.00
1011;DHT22;494;48.744;10.106;2023-07-13T14:28:24;31.90;1.00
1011;DHT22;494;48.744;10.106;2023-07-13T14:30:55;32.10;1.00
1011;DHT22;494;48.744;10.106;2023-07-13T14:33:29;32.50;1.00
1011;DHT22;494;48.744;10.106;2023-07-13T14:36:15;32.60;1.00
1011;DHT22;494;48.744;10.106;2023-07-13T14:38:53;32.80;1.00
1011;DHT22;494;48.744;10.106;2023-07-13T14:41:24;33.00;1.00
1011;DHT22;494;48.744;10.106;2023-07-13T14:43:55;33.00;1.00
1011;DHT22;494;48.744;10.106;2023-07-13T14:46:41;33.20;1.00
1011;DHT22;494;48.744;10.106;2023-07-13T14:49:25;33.30;1.00
1011;DHT22;494;48.744;10.106;2023-07-13T14:52:09;33.30;1.00
1011;DHT22;494;48.744;10.106;2023-07-13T14:54:42;32.70;1.00
1011;DHT22;494;48.744;10.106;2023-07-13T14:57:16;32.10;1.00
1011;DHT22;494;48.744;10.106;2023-07-13T14:59:59;31.40;1.00
1011;DHT22;494;48.744;10.106;2023-07-13T15:02:34;30.90;1.00
1011;DHT22;494;48.744;10.106;2023-07-13T15:05:24;30.70;1.00
1011;DHT22;494;48.744;10.106;2023-07-13T15:08:04;30.90;1.00
1011;DHT22;494;48.744;10.106;2023-07-13T15:10:37;31.50;1.00
1011;DHT22;494;48.744;10.106;2023-07-13T15:13:17;31.80;1.00
1011;DHT22;494;48.744;10.106;2023-07-13T15:15:53;31.70;1.00
1011;DHT22;494;48.744;10.106;2023-07-13T15:18:34;31.50;1.00
1011;DHT22;494;48.744;10.106;2023-07-13T15:21:19;31.20;1.00
1011;DHT22;494;48.744;10.106;2023-07-13T15:24:04;30.70;1.00
1011;DHT22;494;48.744;10.106;2023-07-13T15:26:39;30.10;1.00
1011;DHT22;494;48.744;10.106;2023-07-13T15:29:21;29.50;1.00
1011;DHT22;494;48.744;10.106;2023-07-13T15:32:18;29.40;1.00
1011;DHT22;494;48.744;10.106;2023-07-13T15:34:53;29.90;1.00
1011;DHT22;494;48.744;10.106;2023-07-13T15:37:25;30.40;1.00
1011;DHT22;494;48.744;10.106;2023-07-13T15:40:24;30.60;1.00
1011;DHT22;494;48.744;10.106;2023-07-13T15:42:59;31.00;1.00
1011;DHT22;494;48.744;10.106;2023-07-13T15:45:46;31.00;1.00
1011;DHT22;494;48.744;10.106;2023-07-13T15:48:21;30.80;1.00
1011;DHT22;494;48.744;10.106;2023-07-13T15:51:14;30.80;1.00
1011;DHT22;494;48.744;10.106;2023-07-13T15:53:53;30.80;1.00
1011;DHT22;494;48.744;10.106;2023-07-13T15:56:38;30.80;1.00
1011;DHT22;494;48.744;10.106;2023-07-13T15:59:14;30.80;1.00
1011;DHT22;494;48.744;10.106;2023-07-13T16:01:52;31.00;1.00
1011;DHT22;494;48.744;10.106;2023-07-13T16:04:27;31.30;1.00
1011;DHT22;494;48.744;10.106;2023-07-13T16:07:04;31.50;1.00
1011;DHT22;494;48.744;10.106;2023-07-13T16:09:34;32.00;1.00
1011;DHT22;494;48.744;10.106;2023-07-13T16:12:12;32.20;1.00
1011;DHT22;494;48.744;10.106;2023-07-13T16:14:44;32.20;1.00
1011;DHT22;494;48.744;10.106;2023-07-13T16:17:16;32.10;1.00
1011;DHT22;494;48.744;10.106;2023-07-13T16:19:47;32.10;1.00
1011;DHT22;494;48.744;10.106;2023-07-13T16:22:20;32.00;1.00
1011;DHT22;494;48.744;10.106;2023-07-13T16:24:49;32.10;1.00
1011;DHT22;494;48.744;10.106;2023-07-13T16:27:23;32.00;1.00
1011;DHT22;494;48.744;10.106;2023-07-13T16:29:53;32.00;1.00
1011;DHT22;494;48.744;10.106;2023-07-13T16:32:23;31.80;1.00
1011;DHT22;494;48.744;10.106;2023-07-13T16:34:53;31.60;1.00
1011;DHT22;494;48.744;10.106;2023-07-13T16:37:29;31.30;1.00
1011;DHT22;494;48.744;10.106;2023-07-13T16:40:00;30.80;1.00
1011;DHT22;494;48.744;10.106;2023-07-13T16:42:37;30.20;1.00
1011;DHT22;494;48.744;10.106;2023-07-13T16:45:11;29.80;1.00
1011;DHT22;494;48.744;10.106;2023-07-13T16:47:45;29.40;1.00
1011;DHT22;494;48.744;10.106;2023-07-13T16:50:20;29.20;1.00
1011;DHT22;494;48.744;10.106;2023-07-13T16:53:19;29.20;1.00
1011;DHT22;494;48.744;10.106;2023-07-13T16:55:53;29.20;1.00
1011;DHT22;494;48.744;10.106;2023-07-13T16:58:27;28.70;1.00